Time;durP1;ratioP1;P1;durP2;ratioP2;P2;SDS_P1;SDS_P2;PMS_P1;PMS_P2;Temp;Humidity;BMP_temperature;BMP_pressure;BME280_temperature;BME280_humidity;BME280_pressure;Samples;Min_cycle;Max_cycle;Signal;HPM_P1;HPM_P2
2023/02/25 00:00:18;;;;;;;3.37;1.90;;;;;;;;;;4998389;28;20217;-86
2023/02/25 00:02:48;;;;;;;2.07;1.50;;;;;;;;;;4976987;28;20307;-86
2023/02/25 00:05:16;;;;;;;1.57;1.43;;;;;;;;;;4978445;28;20221;-87
2023/02/25 00:07:42;;;;;;;5.13;2.10;;;;;;;;;;4998366;28;20243;-86
2023/02/25 00:10:13;;;;;;;2.93;1.50;;;;;;;;;;4998045;28;20221;-88
2023/02/25 00:12:39;;;;;;;6.20;1.40;;;;;;;;;;4970782;28;20291;-86
2023/02/25 00:15:07;;;;;;;5.07;1.30;;;;;;;;;;4982051;28;20221;-87
2023/02/25 00:17:36;;;;;;;1.50;1.10;;;;;;;;;;4997166;28;20228;-87
2023/02/25 00:20:12;;;;;;;1.57;1.20;;;;;;;;;;4989560;28;20244;-87
2023/02/25 00:22:38;;;;;;;1.33;1.20;;;;;;;;;;4996738;28;20259;-86
2023/02/25 00:25:03;;;;;;;2.20;1.13;;;;;;;;;;4996023;28;20217;-87
2023/02/25 00:27:31;;;;;;;1.63;1.17;;;;;;;;;;5012129;28;20225;-84
2023/02/25 00:29:59;;;;;;;2.07;1.27;;;;;;;;;;5002464;28;20258;-87
2023/02/25 00:32:25;;;;;;;1.00;0.87;;;;;;;;;;4980158;28;20219;-87
2023/02/25 00:34:50;;;;;;;4.60;1.40;;;;;;;;;;4962938;28;20221;-88
2023/02/25 00:37:18;;;;;;;2.03;1.00;;;;;;;;;;4994216;28;20253;-86
2023/02/25 00:39:46;;;;;;;1.97;0.83;;;;;;;;;;4994166;28;20694;-87
2023/02/25 00:42:16;;;;;;;2.87;0.90;;;;;;;;;;4978962;28;20220;-87
2023/02/25 00:44:44;;;;;;;1.77;1.10;;;;;;;;;;5008048;28;20221;-89
2023/02/25 00:47:10;;;;;;;1.83;1.00;;;;;;;;;;4986543;28;20662;-87
2023/02/25 00:49:38;;;;;;;2.10;0.60;;;;;;;;;;4965580;28;20584;-87
2023/02/25 00:52:06;;;;;;;1.17;0.80;;;;;;;;;;4975514;28;20216;-89
2023/02/25 00:54:32;;;;;;;2.03;0.60;;;;;;;;;;4997444;28;20694;-88
2023/02/25 00:57:04;;;;;;;0.83;0.70;;;;;;;;;;5000786;28;20223;-88
2023/02/25 00:59:32;;;;;;;4.20;0.70;;;;;;;;;;4995421;28;20231;-88
2023/02/25 01:01:57;;;;;;;2.87;0.90;;;;;;;;;;4998122;28;20216;-88
2023/02/25 01:04:23;;;;;;;1.97;0.90;;;;;;;;;;4986880;28;20243;-89
2023/02/25 01:06:48;;;;;;;4.87;0.73;;;;;;;;;;4975014;28;20666;-88
2023/02/25 01:09:14;;;;;;;2.27;1.10;;;;;;;;;;5007794;28;20221;-89
2023/02/25 01:11:42;;;;;;;1.97;0.93;;;;;;;;;;4963226;28;20217;-87
2023/02/25 01:14:11;;;;;;;1.63;0.90;;;;;;;;;;4992693;28;20197;-86
2023/02/25 01:16:36;;;;;;;2.47;0.80;;;;;;;;;;5008575;28;20288;-88
2023/02/25 01:19:08;;;;;;;1.67;0.70;;;;;;;;;;4981421;28;20300;-90
2023/02/25 01:21:44;;;;;;;2.80;1.10;;;;;;;;;;4986288;28;20240;-90
2023/02/25 01:24:17;;;;;;;2.43;0.80;;;;;;;;;;4984826;28;20216;-86
2023/02/25 01:26:43;;;;;;;2.93;0.80;;;;;;;;;;4996800;28;20299;-89
2023/02/25 01:29:13;;;;;;;1.87;1.00;;;;;;;;;;4968077;28;20754;-87
2023/02/25 01:31:38;;;;;;;1.73;0.83;;;;;;;;;;4998799;28;20225;-87
2023/02/25 01:34:05;;;;;;;2.10;1.10;;;;;;;;;;4982953;28;20220;-88
2023/02/25 01:36:31;;;;;;;2.07;1.00;;;;;;;;;;4959101;28;20244;-88
2023/02/25 01:39:00;;;;;;;1.93;0.90;;;;;;;;;;4982635;28;20275;-88
2023/02/25 01:41:29;;;;;;;2.53;0.93;;;;;;;;;;4971853;28;20300;-87
2023/02/25 01:44:11;;;;;;;2.13;1.00;;;;;;;;;;4973954;28;20228;-87
2023/02/25 01:46:38;;;;;;;2.03;0.90;;;;;;;;;;4968335;28;20243;-85
2023/02/25 01:49:08;;;;;;;2.43;0.90;;;;;;;;;;4983649;28;20816;-89
2023/02/25 01:51:34;;;;;;;1.40;0.67;;;;;;;;;;4995315;28;20232;-87
2023/02/25 01:54:01;;;;;;;3.67;1.13;;;;;;;;;;4996207;28;20695;-88
2023/02/25 01:56:29;;;;;;;2.63;0.90;;;;;;;;;;4995248;28;20217;-86
2023/02/25 01:58:59;;;;;;;2.17;0.80;;;;;;;;;;4995758;28;20235;-88
2023/02/25 02:01:28;;;;;;;1.60;0.70;;;;;;;;;;4993704;28;20695;-89
2023/02/25 02:03:54;;;;;;;2.77;0.90;;;;;;;;;;4995857;28;20558;-86
2023/02/25 02:06:27;;;;;;;2.20;0.90;;;;;;;;;;4982802;28;20283;-89
2023/02/25 02:08:55;;;;;;;1.70;1.00;;;;;;;;;;4978826;28;20220;-87
2023/02/25 02:11:20;;;;;;;2.67;1.10;;;;;;;;;;4994147;28;20315;-85
2023/02/25 02:13:53;;;;;;;1.83;0.90;;;;;;;;;;4975790;28;20800;-86
2023/02/25 02:16:43;;;;;;;1.63;0.80;;;;;;;;;;4994557;28;20221;-88
2023/02/25 02:19:21;;;;;;;2.87;0.90;;;;;;;;;;4997266;28;20214;-83
2023/02/25 02:21:59;;;;;;;3.43;0.87;;;;;;;;;;5018733;28;20231;-87
2023/02/25 02:24:48;;;;;;;1.30;0.90;;;;;;;;;;5000943;28;20680;-88
2023/02/25 02:27:23;;;;;;;1.67;0.90;;;;;;;;;;5012139;28;20667;-87
2023/02/25 02:30:12;;;;;;;1.87;0.97;;;;;;;;;;4990261;28;20635;-88
2023/02/25 02:33:03;;;;;;;3.57;1.13;;;;;;;;;;4988312;28;20216;-88
2023/02/25 02:35:56;;;;;;;1.60;0.90;;;;;;;;;;4990367;28;20228;-89
2023/02/25 02:38:28;;;;;;;1.43;0.90;;;;;;;;;;4978894;28;22470;-90
2023/02/25 02:41:06;;;;;;;2.07;0.77;;;;;;;;;;4988558;28;20204;-84
2023/02/25 02:43:36;;;;;;;1.73;0.90;;;;;;;;;;5016243;28;20236;-85
2023/02/25 02:46:07;;;;;;;2.20;0.90;;;;;;;;;;4972260;28;20217;-89
2023/02/25 02:48:44;;;;;;;1.37;0.80;;;;;;;;;;4963854;28;20245;-86
2023/02/25 02:51:22;;;;;;;3.93;1.10;;;;;;;;;;4977888;28;20248;-89
2023/02/25 02:53:58;;;;;;;1.20;0.90;;;;;;;;;;4981410;28;20217;-88
2023/02/25 02:56:25;;;;;;;2.50;1.13;;;;;;;;;;5003372;28;20243;-88
2023/02/25 02:58:53;;;;;;;3.10;1.03;;;;;;;;;;5017330;28;20216;-84
2023/02/25 03:01:46;;;;;;;2.83;1.00;;;;;;;;;;5032815;28;20296;-87
2023/02/25 03:04:16;;;;;;;1.10;0.80;;;;;;;;;;5000543;28;20228;-84
2023/02/25 03:06:47;;;;;;;2.00;0.90;;;;;;;;;;4985903;28;20295;-88
2023/02/25 03:09:21;;;;;;;1.40;0.80;;;;;;;;;;4967727;28;20224;-88
2023/02/25 03:11:48;;;;;;;1.63;0.93;;;;;;;;;;4988327;28;20635;-87
2023/02/25 03:14:16;;;;;;;1.63;0.93;;;;;;;;;;4998107;28;20220;-87
2023/02/25 03:17:35;;;;;;;1.67;0.90;;;;;;;;;;5003280;28;20220;-86
2023/02/25 03:20:07;;;;;;;1.67;0.80;;;;;;;;;;4995351;28;20216;-89
2023/02/25 03:22:42;;;;;;;2.60;1.00;;;;;;;;;;4997319;28;20221;-89
2023/02/25 03:25:19;;;;;;;0.90;0.83;;;;;;;;;;4965066;28;20274;-88
2023/02/25 03:27:53;;;;;;;1.40;1.10;;;;;;;;;;5005238;28;20236;-85
2023/02/25 03:30:35;;;;;;;1.47;1.13;;;;;;;;;;4975787;28;20692;-83
2023/02/25 03:33:23;;;;;;;6.00;1.40;;;;;;;;;;5012390;28;20240;-88
2023/02/25 03:35:49;;;;;;;1.13;0.90;;;;;;;;;;4995795;28;20216;-87
2023/02/25 03:38:18;;;;;;;3.20;0.93;;;;;;;;;;4998283;28;20710;-88
2023/02/25 03:40:44;;;;;;;2.60;1.50;;;;;;;;;;4996072;28;20244;-91
2023/02/25 03:43:16;;;;;;;1.63;0.90;;;;;;;;;;5007980;28;20236;-88
2023/02/25 03:45:42;;;;;;;3.80;0.93;;;;;;;;;;4986362;28;20212;-88
2023/02/25 03:48:08;;;;;;;1.30;0.70;;;;;;;;;;4996018;28;20235;-89
2023/02/25 03:50:41;;;;;;;1.27;0.80;;;;;;;;;;4980426;28;20308;-87
2023/02/25 03:53:11;;;;;;;0.90;0.70;;;;;;;;;;5004634;28;20304;-87
2023/02/25 03:55:48;;;;;;;1.00;0.80;;;;;;;;;;4985546;28;20220;-88
2023/02/25 03:58:14;;;;;;;1.47;0.93;;;;;;;;;;4997154;28;20256;-90
2023/02/25 04:00:40;;;;;;;3.03;1.00;;;;;;;;;;4986125;28;20312;-89
2023/02/25 04:03:05;;;;;;;1.77;0.93;;;;;;;;;;5004201;28;20228;-89
2023/02/25 04:05:31;;;;;;;0.97;0.80;;;;;;;;;;4994666;28;20225;-89
2023/02/25 04:07:57;;;;;;;1.97;0.70;;;;;;;;;;4997424;28;20225;-89
2023/02/25 04:10:27;;;;;;;2.27;0.90;;;;;;;;;;4986441;28;20276;-85
2023/02/25 04:12:52;;;;;;;1.77;1.00;;;;;;;;;;5015914;28;20572;-88
2023/02/25 04:15:18;;;;;;;1.80;1.10;;;;;;;;;;4977432;28;20349;-87
2023/02/25 04:17:49;;;;;;;1.43;0.90;;;;;;;;;;4974920;28;20225;-85
2023/02/25 04:20:18;;;;;;;1.97;1.20;;;;;;;;;;4995994;28;20225;-87
2023/02/25 04:22:48;;;;;;;3.30;1.50;;;;;;;;;;4970083;28;20706;-88
2023/02/25 04:25:18;;;;;;;1.43;1.00;;;;;;;;;;4978689;28;20320;-88
2023/02/25 04:27:44;;;;;;;1.20;1.00;;;;;;;;;;4996593;28;20251;-88
2023/02/25 04:30:11;;;;;;;1.37;1.10;;;;;;;;;;4953815;28;20717;-88
2023/02/25 04:32:41;;;;;;;1.90;0.97;;;;;;;;;;4991054;28;20224;-88
2023/02/25 04:35:10;;;;;;;1.63;1.00;;;;;;;;;;4979037;28;20225;-88
2023/02/25 04:37:37;;;;;;;1.47;1.23;;;;;;;;;;4971441;28;20220;-87
2023/02/25 04:40:12;;;;;;;2.43;1.10;;;;;;;;;;4947337;28;20733;-88
2023/02/25 04:42:42;;;;;;;1.30;1.10;;;;;;;;;;4984545;28;20216;-87
2023/02/25 04:45:09;;;;;;;1.40;1.17;;;;;;;;;;4996904;28;20212;-85
2023/02/25 04:47:37;;;;;;;1.20;1.10;;;;;;;;;;4999791;28;20231;-87
2023/02/25 04:50:04;;;;;;;2.20;1.47;;;;;;;;;;5003470;28;20224;-87
2023/02/25 04:52:29;;;;;;;2.53;1.40;;;;;;;;;;4979817;28;20260;-88
2023/02/25 04:54:55;;;;;;;3.57;1.20;;;;;;;;;;4982704;28;20244;-84
2023/02/25 04:57:20;;;;;;;1.40;1.30;;;;;;;;;;4979657;28;20236;-88
2023/02/25 04:59:48;;;;;;;3.40;1.73;;;;;;;;;;4973196;28;20251;-83
2023/02/25 05:02:19;;;;;;;1.37;1.13;;;;;;;;;;5000974;28;20239;-85
2023/02/25 05:04:44;;;;;;;1.30;1.00;;;;;;;;;;4998546;28;20230;-79
2023/02/25 05:07:12;;;;;;;1.97;1.00;;;;;;;;;;5012031;28;20221;-81
2023/02/25 05:09:40;;;;;;;3.73;1.10;;;;;;;;;;5010607;28;20281;-81
2023/02/25 05:12:06;;;;;;;1.40;1.20;;;;;;;;;;4980912;28;20226;-82
2023/02/25 05:14:35;;;;;;;3.87;1.20;;;;;;;;;;5011131;28;20248;-80
2023/02/25 05:17:03;;;;;;;3.63;1.10;;;;;;;;;;4993152;28;20217;-81
2023/02/25 05:19:29;;;;;;;3.80;1.20;;;;;;;;;;4995848;28;20808;-80
2023/02/25 05:21:57;;;;;;;1.37;0.90;;;;;;;;;;5004319;28;20599;-83
2023/02/25 05:24:27;;;;;;;2.63;0.87;;;;;;;;;;4990886;28;20221;-82
2023/02/25 05:26:52;;;;;;;2.30;1.07;;;;;;;;;;5000016;28;20738;-84
2023/02/25 05:29:18;;;;;;;1.20;1.03;;;;;;;;;;4994815;28;20220;-83
2023/02/25 05:31:46;;;;;;;0.83;0.83;;;;;;;;;;4994971;28;20272;-82
2023/02/25 05:34:12;;;;;;;1.23;1.13;;;;;;;;;;4994570;28;20236;-82
2023/02/25 05:36:37;;;;;;;1.43;0.80;;;;;;;;;;5011238;28;20222;-82
2023/02/25 05:39:02;;;;;;;1.40;1.10;;;;;;;;;;4991819;28;20217;-81
2023/02/25 05:41:28;;;;;;;2.30;1.30;;;;;;;;;;4995204;28;20275;-81
2023/02/25 05:43:56;;;;;;;3.00;1.37;;;;;;;;;;4983266;28;20217;-82
2023/02/25 05:46:25;;;;;;;2.33;0.90;;;;;;;;;;4992336;28;20228;-81
2023/02/25 05:48:50;;;;;;;1.37;1.07;;;;;;;;;;5012066;28;20235;-81
2023/02/25 05:51:19;;;;;;;1.10;0.93;;;;;;;;;;4995061;28;20240;-80
2023/02/25 05:53:48;;;;;;;1.10;0.80;;;;;;;;;;4984009;28;20256;-84
2023/02/25 05:56:18;;;;;;;0.67;0.50;;;;;;;;;;5005767;28;20273;-83
2023/02/25 05:58:45;;;;;;;3.30;0.90;;;;;;;;;;4984783;28;20335;-83
2023/02/25 06:01:19;;;;;;;1.47;0.83;;;;;;;;;;5000752;28;20232;-82
2023/02/25 06:03:45;;;;;;;0.83;0.70;;;;;;;;;;4986092;28;20228;-82
2023/02/25 06:06:17;;;;;;;1.50;0.53;;;;;;;;;;4983237;28;20221;-82
2023/02/25 06:08:48;;;;;;;0.83;0.60;;;;;;;;;;4998738;28;20869;-82
2023/02/25 06:11:17;;;;;;;0.80;0.70;;;;;;;;;;5001543;28;20243;-82
2023/02/25 06:13:42;;;;;;;1.70;0.70;;;;;;;;;;4985700;28;20338;-83
2023/02/25 06:16:08;;;;;;;1.03;0.60;;;;;;;;;;4988333;28;20224;-82
2023/02/25 06:18:36;;;;;;;1.50;0.87;;;;;;;;;;5000813;28;20216;-84
2023/02/25 06:21:09;;;;;;;2.30;0.80;;;;;;;;;;4986970;28;20244;-83
2023/02/25 06:23:34;;;;;;;0.50;0.50;;;;;;;;;;5001620;28;20221;-81
2023/02/25 06:26:00;;;;;;;1.40;0.80;;;;;;;;;;5003684;28;20603;-84
2023/02/25 06:28:26;;;;;;;1.20;0.60;;;;;;;;;;5002366;28;20319;-83
2023/02/25 06:30:56;;;;;;;1.70;0.80;;;;;;;;;;5011406;28;20286;-80
2023/02/25 06:33:22;;;;;;;1.60;0.83;;;;;;;;;;5000232;28;20219;-82
2023/02/25 06:35:51;;;;;;;2.07;0.70;;;;;;;;;;5002360;28;20496;-85
2023/02/25 06:38:17;;;;;;;0.50;0.50;;;;;;;;;;5007744;28;20306;-84
2023/02/25 06:40:42;;;;;;;2.23;0.70;;;;;;;;;;4983389;28;20260;-83
2023/02/25 06:43:10;;;;;;;0.93;0.50;;;;;;;;;;4990080;28;20279;-83
2023/02/25 06:45:35;;;;;;;1.30;0.73;;;;;;;;;;4986060;28;20221;-80
2023/02/25 06:48:01;;;;;;;1.03;0.60;;;;;;;;;;5002757;28;20224;-84
2023/02/25 06:50:26;;;;;;;0.73;0.70;;;;;;;;;;5016990;28;20611;-80
2023/02/25 06:52:52;;;;;;;1.87;0.53;;;;;;;;;;5002599;28;20231;-81
2023/02/25 06:55:18;;;;;;;1.07;0.80;;;;;;;;;;4991656;28;20230;-83
2023/02/25 06:57:45;;;;;;;0.87;0.70;;;;;;;;;;4984725;28;20276;-83
2023/02/25 07:00:11;;;;;;;1.53;0.70;;;;;;;;;;5004031;28;20709;-81
2023/02/25 07:02:37;;;;;;;1.90;0.90;;;;;;;;;;5010266;28;20221;-81
2023/02/25 07:05:04;;;;;;;0.60;0.60;;;;;;;;;;4985521;28;20228;-79
2023/02/25 07:07:29;;;;;;;1.37;0.80;;;;;;;;;;5002707;28;20390;-81
2023/02/25 07:09:55;;;;;;;0.83;0.60;;;;;;;;;;5019041;28;20225;-81
2023/02/25 07:12:20;;;;;;;0.47;0.43;;;;;;;;;;4986949;28;20685;-81
2023/02/25 07:14:48;;;;;;;2.57;0.70;;;;;;;;;;5002113;28;20281;-81
2023/02/25 07:17:14;;;;;;;1.47;0.80;;;;;;;;;;5003908;28;20278;-81
2023/02/25 07:19:39;;;;;;;0.83;0.57;;;;;;;;;;5000498;28;20757;-83
2023/02/25 07:22:05;;;;;;;0.70;0.70;;;;;;;;;;4997953;28;20216;-82
2023/02/25 07:24:31;;;;;;;3.20;0.50;;;;;;;;;;4992089;28;20220;-83
2023/02/25 07:26:56;;;;;;;0.97;0.60;;;;;;;;;;4999685;28;20228;-84
2023/02/25 07:29:22;;;;;;;1.03;0.60;;;;;;;;;;4965011;28;20231;-84
2023/02/25 07:31:50;;;;;;;0.77;0.73;;;;;;;;;;5008774;28;20229;-84
2023/02/25 07:34:15;;;;;;;0.60;0.60;;;;;;;;;;4980063;28;20233;-83
2023/02/25 07:36:40;;;;;;;2.97;0.87;;;;;;;;;;4997233;28;20225;-85
2023/02/25 07:39:08;;;;;;;2.20;0.77;;;;;;;;;;5013272;28;20221;-83
2023/02/25 07:41:34;;;;;;;1.93;0.80;;;;;;;;;;4984248;28;20224;-83
2023/02/25 07:44:05;;;;;;;2.53;1.00;;;;;;;;;;4997391;28;20275;-84
2023/02/25 07:46:32;;;;;;;1.07;0.73;;;;;;;;;;5012136;28;20639;-82
2023/02/25 07:48:58;;;;;;;1.73;1.00;;;;;;;;;;5000188;28;20225;-83
2023/02/25 07:51:24;;;;;;;0.67;0.67;;;;;;;;;;4996572;28;20233;-84
2023/02/25 07:53:55;;;;;;;0.93;0.70;;;;;;;;;;5008183;28;20315;-84
2023/02/25 07:56:23;;;;;;;1.33;0.90;;;;;;;;;;5015998;28;20229;-84
2023/02/25 07:58:48;;;;;;;1.93;1.00;;;;;;;;;;4996175;28;20240;-83
2023/02/25 08:01:17;;;;;;;5.13;0.80;;;;;;;;;;5000195;28;20259;-83
2023/02/25 08:03:46;;;;;;;3.17;0.70;;;;;;;;;;5014311;28;20229;-83
2023/02/25 08:06:12;;;;;;;4.27;0.90;;;;;;;;;;4996907;28;20753;-83
2023/02/25 08:08:37;;;;;;;0.83;0.80;;;;;;;;;;4973805;28;20229;-82
2023/02/25 08:11:05;;;;;;;1.53;0.93;;;;;;;;;;4980338;28;20232;-81
2023/02/25 08:13:32;;;;;;;1.17;0.87;;;;;;;;;;5002662;28;20721;-82
2023/02/25 08:16:00;;;;;;;2.90;0.90;;;;;;;;;;5018639;28;20227;-83
2023/02/25 08:18:26;;;;;;;0.67;0.67;;;;;;;;;;5002245;28;20713;-82
2023/02/25 08:20:54;;;;;;;1.07;0.80;;;;;;;;;;5004882;28;20231;-81
2023/02/25 08:23:20;;;;;;;1.17;0.80;;;;;;;;;;4997467;28;20664;-82
2023/02/25 08:25:45;;;;;;;1.43;1.33;;;;;;;;;;4996922;28;20212;-82
2023/02/25 08:28:14;;;;;;;3.13;0.83;;;;;;;;;;5000002;28;20308;-83
2023/02/25 08:30:42;;;;;;;1.33;0.60;;;;;;;;;;4998617;28;20319;-82
2023/02/25 08:33:10;;;;;;;2.20;0.90;;;;;;;;;;5012929;28;20221;-82
2023/02/25 08:35:36;;;;;;;1.27;1.00;;;;;;;;;;5001245;28;20244;-82
2023/02/25 08:38:04;;;;;;;2.17;1.53;;;;;;;;;;4995322;28;20221;-82
2023/02/25 08:40:32;;;;;;;0.87;0.83;;;;;;;;;;4977436;28;20301;-81
2023/02/25 08:43:00;;;;;;;1.00;0.80;;;;;;;;;;5002312;28;20577;-84
2023/02/25 08:45:27;;;;;;;0.77;0.70;;;;;;;;;;4994283;28;20297;-83
2023/02/25 08:47:53;;;;;;;0.70;0.70;;;;;;;;;;5000320;28;20220;-82
2023/02/25 08:50:19;;;;;;;0.97;0.70;;;;;;;;;;4982427;28;20235;-82
2023/02/25 08:52:44;;;;;;;1.57;0.90;;;;;;;;;;4982479;28;20307;-84
2023/02/25 08:55:14;;;;;;;1.93;0.90;;;;;;;;;;4985300;28;20240;-82
2023/02/25 08:57:45;;;;;;;1.07;0.87;;;;;;;;;;4994454;28;20228;-81
2023/02/25 09:00:14;;;;;;;0.90;0.70;;;;;;;;;;4982517;28;20886;-81
2023/02/25 09:02:40;;;;;;;1.93;0.90;;;;;;;;;;5017073;28;20267;-80
2023/02/25 09:05:06;;;;;;;5.00;0.77;;;;;;;;;;4994291;28;20229;-81
2023/02/25 09:07:32;;;;;;;0.60;0.60;;;;;;;;;;4995971;28;20228;-80
2023/02/25 09:10:00;;;;;;;1.77;0.80;;;;;;;;;;4995168;28;20332;-83
2023/02/25 09:12:26;;;;;;;1.83;0.80;;;;;;;;;;4993763;28;20224;-81
2023/02/25 09:14:51;;;;;;;1.10;0.63;;;;;;;;;;4998664;28;20224;-82
2023/02/25 09:17:17;;;;;;;1.40;0.80;;;;;;;;;;4997827;28;20221;-81
2023/02/25 09:19:45;;;;;;;1.47;0.90;;;;;;;;;;4995144;28;20271;-80
2023/02/25 09:22:10;;;;;;;0.50;0.50;;;;;;;;;;4993569;28;20335;-81
2023/02/25 09:24:40;;;;;;;1.07;0.77;;;;;;;;;;4998078;28;20328;-82
2023/02/25 09:27:06;;;;;;;0.93;0.60;;;;;;;;;;4976269;28;20663;-80
2023/02/25 09:29:36;;;;;;;2.07;0.70;;;;;;;;;;4992851;28;20229;-80
2023/02/25 09:32:04;;;;;;;1.00;0.70;;;;;;;;;;4995781;28;20278;-81
2023/02/25 09:34:32;;;;;;;1.33;0.80;;;;;;;;;;4977788;28;20229;-80
2023/02/25 09:37:01;;;;;;;2.17;0.80;;;;;;;;;;4999268;28;20385;-81
2023/02/25 09:39:27;;;;;;;0.53;0.53;;;;;;;;;;4995334;28;20225;-80
2023/02/25 09:41:53;;;;;;;1.20;0.43;;;;;;;;;;5012669;28;20279;-78
2023/02/25 09:44:31;;;;;;;1.13;0.53;;;;;;;;;;5003449;28;20232;-80
2023/02/25 09:47:03;;;;;;;1.43;0.83;;;;;;;;;;5011605;28;20315;-79
2023/02/25 09:49:39;;;;;;;1.07;0.40;;;;;;;;;;5008867;28;20231;-81
2023/02/25 09:52:11;;;;;;;0.60;0.53;;;;;;;;;;5010038;28;20611;-80
2023/02/25 09:54:41;;;;;;;0.63;0.50;;;;;;;;;;4993365;28;20254;-80
2023/02/25 09:57:09;;;;;;;1.43;0.80;;;;;;;;;;4998513;28;20224;-82
2023/02/25 09:59:34;;;;;;;0.87;0.67;;;;;;;;;;4992849;28;20227;-81
2023/02/25 10:02:31;;;;;;;2.57;1.00;;;;;;;;;;4993378;28;20228;-81
2023/02/25 10:05:17;;;;;;;0.67;0.53;;;;;;;;;;5016928;28;20249;-81
2023/02/25 10:07:51;;;;;;;2.07;0.83;;;;;;;;;;4991695;28;20243;-81
2023/02/25 10:10:28;;;;;;;0.80;0.70;;;;;;;;;;5009501;28;20315;-79
2023/02/25 10:13:02;;;;;;;0.83;0.60;;;;;;;;;;4999699;28;20221;-82
2023/02/25 10:15:48;;;;;;;1.80;0.70;;;;;;;;;;4995536;28;20232;-81
2023/02/25 10:18:28;;;;;;;2.60;1.63;;;;;;;;;;4992785;28;20239;-82
2023/02/25 10:21:14;;;;;;;2.80;1.00;;;;;;;;;;4997904;28;20315;-83
2023/02/25 10:23:49;;;;;;;1.43;1.20;;;;;;;;;;5010290;28;20236;-81
2023/02/25 10:26:20;;;;;;;1.63;0.80;;;;;;;;;;5001462;28;20773;-80
2023/02/25 10:28:48;;;;;;;1.63;0.90;;;;;;;;;;5011037;28;20228;-81
2023/02/25 10:31:15;;;;;;;1.67;0.90;;;;;;;;;;5010150;28;20239;-82
2023/02/25 10:33:42;;;;;;;1.97;1.20;;;;;;;;;;4981480;28;20970;-80
2023/02/25 10:36:16;;;;;;;1.30;0.63;;;;;;;;;;4994942;28;20225;-80
2023/02/25 10:38:50;;;;;;;1.93;0.70;;;;;;;;;;4998742;28;20224;-81
2023/02/25 10:41:16;;;;;;;2.57;0.97;;;;;;;;;;4979047;28;20270;-79
2023/02/25 10:43:42;;;;;;;0.73;0.53;;;;;;;;;;5002253;28;20224;-81
2023/02/25 10:46:23;;;;;;;3.07;0.90;;;;;;;;;;4997155;28;20685;-81
2023/02/25 10:48:56;;;;;;;1.23;0.80;;;;;;;;;;4999760;28;20232;-81
2023/02/25 10:51:22;;;;;;;0.67;0.60;;;;;;;;;;5003285;28;20948;-79
2023/02/25 10:53:56;;;;;;;0.80;0.70;;;;;;;;;;4997699;28;20228;-80
2023/02/25 10:56:42;;;;;;;0.87;0.73;;;;;;;;;;5014355;28;20228;-81
2023/02/25 10:59:27;;;;;;;2.00;0.87;;;;;;;;;;4999841;28;20228;-80
2023/02/25 11:01:53;;;;;;;2.27;0.83;;;;;;;;;;5000138;28;20307;-80
2023/02/25 11:04:32;;;;;;;1.50;0.77;;;;;;;;;;5000539;28;20728;-79
2023/02/25 11:07:22;;;;;;;1.00;0.70;;;;;;;;;;4985779;28;20208;-78
2023/02/25 11:09:48;;;;;;;1.53;0.77;;;;;;;;;;5011220;28;20275;-81
2023/02/25 11:12:18;;;;;;;1.60;0.80;;;;;;;;;;4979975;28;20217;-82
2023/02/25 11:14:44;;;;;;;1.33;0.67;;;;;;;;;;5000098;28;20233;-79
2023/02/25 11:17:12;;;;;;;1.07;0.80;;;;;;;;;;4999509;28;20319;-80
2023/02/25 11:19:39;;;;;;;1.80;0.80;;;;;;;;;;5016358;28;20227;-82
2023/02/25 11:22:36;;;;;;;0.83;0.53;;;;;;;;;;4994994;28;20221;-78
2023/02/25 11:25:03;;;;;;;1.07;0.50;;;;;;;;;;4995738;28;20231;-78
2023/02/25 11:27:34;;;;;;;0.87;0.80;;;;;;;;;;4996536;28;20272;-79
2023/02/25 11:30:07;;;;;;;1.57;0.50;;;;;;;;;;4975279;28;20224;-82
2023/02/25 11:32:35;;;;;;;0.63;0.63;;;;;;;;;;4994312;28;20658;-82
2023/02/25 11:35:08;;;;;;;0.90;0.80;;;;;;;;;;4995141;28;20635;-82
2023/02/25 11:37:42;;;;;;;0.70;0.50;;;;;;;;;;4993980;28;20371;-81
2023/02/25 11:40:23;;;;;;;2.87;0.70;;;;;;;;;;4995223;28;20258;-83
2023/02/25 11:43:03;;;;;;;0.73;0.50;;;;;;;;;;5013808;28;20232;-79
2023/02/25 11:45:33;;;;;;;1.70;0.60;;;;;;;;;;4995245;28;20220;-80
2023/02/25 11:48:03;;;;;;;0.93;0.70;;;;;;;;;;4995455;28;20221;-82
2023/02/25 11:50:50;;;;;;;2.23;0.90;;;;;;;;;;4995945;28;20220;-79
2023/02/25 11:53:21;;;;;;;2.27;1.00;;;;;;;;;;4979063;28;20283;-80
2023/02/25 11:56:12;;;;;;;2.20;0.90;;;;;;;;;;5013709;28;20232;-80
2023/02/25 11:59:05;;;;;;;2.23;0.70;;;;;;;;;;5011464;28;20226;-84
2023/02/25 12:01:44;;;;;;;2.43;0.70;;;;;;;;;;4994032;28;20237;-79
2023/02/25 12:04:53;;;;;;;2.40;0.73;;;;;;;;;;5009663;28;20299;-79
2023/02/25 12:07:43;;;;;;;1.70;0.90;;;;;;;;;;4981654;28;20239;-82
2023/02/25 12:10:30;;;;;;;0.70;0.70;;;;;;;;;;5021177;28;20229;-81
2023/02/25 12:13:16;;;;;;;0.77;0.57;;;;;;;;;;5023715;28;20239;-80
2023/02/25 12:16:33;;;;;;;2.33;0.90;;;;;;;;;;4989089;28;20228;-79
2023/02/25 12:19:14;;;;;;;1.63;0.60;;;;;;;;;;5010077;28;20235;-82
2023/02/25 12:22:04;;;;;;;1.23;0.83;;;;;;;;;;5017385;28;20284;-80
2023/02/25 12:24:47;;;;;;;1.87;0.97;;;;;;;;;;5011641;28;20232;-80
2023/02/25 12:27:43;;;;;;;1.83;1.00;;;;;;;;;;5010553;28;20224;-81
2023/02/25 12:30:36;;;;;;;2.57;0.80;;;;;;;;;;5016520;28;20224;-81
2023/02/25 12:33:09;;;;;;;2.57;1.10;;;;;;;;;;5010933;28;20228;-81
2023/02/25 12:35:49;;;;;;;1.03;0.70;;;;;;;;;;5009480;28;20258;-80
2023/02/25 12:38:47;;;;;;;0.80;0.70;;;;;;;;;;4996298;28;20307;-80
2023/02/25 12:41:38;;;;;;;3.30;0.87;;;;;;;;;;4992093;28;20221;-81
2023/02/25 12:44:19;;;;;;;6.47;1.17;;;;;;;;;;5010544;28;20535;-80
2023/02/25 12:47:22;;;;;;;1.97;1.00;;;;;;;;;;5014021;28;20263;-79
2023/02/25 12:50:06;;;;;;;0.70;0.70;;;;;;;;;;4975041;28;20303;-81
2023/02/25 12:52:52;;;;;;;1.53;0.70;;;;;;;;;;4991818;28;20225;-80
2023/02/25 12:55:44;;;;;;;3.37;1.00;;;;;;;;;;5010345;28;20224;-80
2023/02/25 12:58:32;;;;;;;4.67;1.40;;;;;;;;;;4977057;28;20337;-79
2023/02/25 13:01:21;;;;;;;2.60;1.17;;;;;;;;;;5011521;28;20724;-80
2023/02/25 13:03:55;;;;;;;2.07;1.10;;;;;;;;;;4995780;28;20213;-81
2023/02/25 13:07:03;;;;;;;2.53;0.90;;;;;;;;;;5014276;28;20251;-80
2023/02/25 13:09:32;;;;;;;2.37;1.00;;;;;;;;;;5002949;28;20311;-80
2023/02/25 13:12:00;;;;;;;1.30;0.90;;;;;;;;;;4992516;28;20240;-81
2023/02/25 13:14:43;;;;;;;2.63;0.80;;;;;;;;;;5008353;28;20225;-81
2023/02/25 13:17:20;;;;;;;2.30;0.83;;;;;;;;;;4972724;28;20227;-82
2023/02/25 13:19:48;;;;;;;3.33;1.07;;;;;;;;;;5007122;28;20277;-82
2023/02/25 13:22:19;;;;;;;1.67;1.00;;;;;;;;;;4997754;28;20591;-81
2023/02/25 13:25:13;;;;;;;4.00;1.00;;;;;;;;;;5012758;28;20240;-82
2023/02/25 13:27:58;;;;;;;0.90;0.80;;;;;;;;;;4993667;28;20256;-81
2023/02/25 13:30:32;;;;;;;1.60;0.67;;;;;;;;;;4997234;28;20232;-78
2023/02/25 13:33:31;;;;;;;2.33;0.70;;;;;;;;;;4983019;28;20275;-82
2023/02/25 13:36:32;;;;;;;3.43;0.80;;;;;;;;;;4996004;28;20275;-80
2023/02/25 13:39:21;;;;;;;0.80;0.60;;;;;;;;;;4995293;28;20628;-82
2023/02/25 13:42:12;;;;;;;2.17;0.90;;;;;;;;;;5011649;28;20245;-82
2023/02/25 13:44:40;;;;;;;2.77;0.83;;;;;;;;;;5019102;28;20225;-79
2023/02/25 13:47:41;;;;;;;1.47;0.80;;;;;;;;;;5017903;28;20232;-80
2023/02/25 13:50:24;;;;;;;1.43;0.73;;;;;;;;;;5011868;28;20383;-81
2023/02/25 13:52:59;;;;;;;3.20;0.83;;;;;;;;;;4996984;28;20228;-82
2023/02/25 13:56:22;;;;;;;2.27;0.80;;;;;;;;;;4998128;28;20344;-82
2023/02/25 13:59:14;;;;;;;3.50;0.90;;;;;;;;;;4972558;28;20749;-80
2023/02/25 14:05:42;;;;;;;1.03;0.63;;;;;;;;;;4960574;28;21459;-83
2023/02/25 14:09:00;;;;;;;;;;;;;;;;;;;;;
2023/02/25 14:12:08;;;;;;;0.83;0.77;;;;;;;;;;4989670;28;20302;-83
2023/02/25 14:14:53;;;;;;;1.87;0.80;;;;;;;;;;5009731;28;20228;-81
2023/02/25 14:18:03;;;;;;;1.27;0.60;;;;;;;;;;5020345;28;20235;-82
2023/02/25 14:20:44;;;;;;;1.80;0.83;;;;;;;;;;5023524;28;20216;-82
2023/02/25 14:23:40;;;;;;;1.40;1.03;;;;;;;;;;5022807;28;20224;-82
2023/02/25 14:26:05;;;;;;;2.10;1.00;;;;;;;;;;5022685;28;20231;-83
2023/02/25 14:29:16;;;;;;;1.30;0.60;;;;;;;;;;5021659;28;20228;-80
2023/02/25 14:32:34;;;;;;;3.07;0.83;;;;;;;;;;4978082;28;20240;-81
2023/02/25 14:35:24;;;;;;;1.23;1.00;;;;;;;;;;5027178;28;20225;-81
2023/02/25 14:38:10;;;;;;;1.77;0.80;;;;;;;;;;4996487;28;20251;-81
2023/02/25 14:41:29;;;;;;;1.47;0.90;;;;;;;;;;5028719;28;20289;-80
2023/02/25 14:44:07;;;;;;;1.03;0.70;;;;;;;;;;4971871;28;20224;-81
2023/02/25 14:46:42;;;;;;;0.97;0.80;;;;;;;;;;4991394;28;20252;-80
2023/02/25 14:49:19;;;;;;;2.60;1.10;;;;;;;;;;5009240;28;20224;-81
2023/02/25 14:52:28;;;;;;;2.17;0.80;;;;;;;;;;5026005;28;20240;-79
2023/02/25 14:55:50;;;;;;;3.03;0.77;;;;;;;;;;4990523;28;20257;-81
2023/02/25 14:58:35;;;;;;;4.33;1.17;;;;;;;;;;4999387;28;20232;-80
2023/02/25 15:01:37;;;;;;;1.97;0.80;;;;;;;;;;5021521;28;20661;-82
2023/02/25 15:04:43;;;;;;;4.47;0.87;;;;;;;;;;5008853;28;20229;-79
2023/02/25 15:07:17;;;;;;;1.20;0.70;;;;;;;;;;5008056;28;20757;-80
2023/02/25 15:09:55;;;;;;;1.30;0.83;;;;;;;;;;5006494;28;20225;-81
2023/02/25 15:13:01;;;;;;;1.03;0.70;;;;;;;;;;5023621;28;20613;-80
2023/02/25 15:16:10;;;;;;;1.17;0.83;;;;;;;;;;4988436;28;20571;-78
2023/02/25 15:18:39;;;;;;;1.77;0.80;;;;;;;;;;5021572;28;20240;-80
2023/02/25 15:21:28;;;;;;;1.40;0.80;;;;;;;;;;5025538;28;20220;-82
2023/02/25 15:23:54;;;;;;;3.83;1.20;;;;;;;;;;5020236;28;20229;-80
2023/02/25 15:26:47;;;;;;;4.00;0.90;;;;;;;;;;4990337;28;20228;-79